Umatilla — WDG2202 — position and weather

sailwx.info

Track history (hours):
 
Tides and Currents Weather Stations Pressure Air Temp Water Temp Dewpoint Dewpoint Depression Visibility Wind Speed Wind Dir Waves Ship Positions

Umatilla

Owner: Shaver TRansportation Company, Portland, OR. More information available from US FCC via Universal Licensing System and Coast Guard Vessel Documentation Center.

Last reported at 2017-Dec-11 16:57 UTC. Time now 2017-Dec-12 15:41 UTC.
Position N 45°37' W 122°42'.

Length 20 m; draft 2.9 m.

Type: Tug. MMSI: 367513210.

Date/timePositionNaut miles runAvg speedWind from/ knotsBaromVisibWave heightAir tempDewpointWater temp
2017-Dec-11 16:57N 45°37' W 122°42'0 0.1
2017-Dec-11 16:19N 45°37' W 122°42'2 5.6
2017-Dec-11 16:00N 45°38' W 122°44'1 1.5
2017-Dec-11 15:26N 45°39' W 122°45'0 0.0
2017-Dec-11 14:59N 45°39' W 122°45'1 1.1
2017-Dec-11 14:30N 45°39' W 122°46'1 2.2
2017-Dec-11 14:00N 45°38' W 122°47'1 2.3
2017-Dec-11 13:30N 45°39' W 122°46'1 1.1
2017-Dec-11 13:00N 45°39' W 122°45'1 1.6
2017-Dec-11 12:31N 45°39' W 122°46'4 7.2
2017-Dec-11 12:00N 45°36' W 122°46'3 5.2
2017-Dec-11 11:30N 45°34' W 122°44'0 0.1
2017-Dec-11 10:55N 45°34' W 122°44'0 0.0
2017-Dec-11 10:28N 45°34' W 122°44'0 0.0
2017-Dec-11 09:52N 45°34' W 122°44'0 0.0
2017-Dec-11 09:25N 45°34' W 122°44'0 0.0
2017-Dec-11 08:58N 45°34' W 122°44'0 0.0
2017-Dec-11 08:10N 45°34' W 122°44'0 0.0
2017-Dec-11 07:55N 45°34' W 122°44'0 0.0
2017-Dec-11 07:29N 45°34' W 122°44'0 0.0
2017-Dec-11 06:59N 45°34' W 122°44'0 0.0
2017-Dec-11 06:29N 45°34' W 122°44'0 0.0
2017-Dec-11 05:56N 45°34' W 122°44'0 0.0
2017-Dec-11 05:26N 45°34' W 122°44'0 0.0
2017-Dec-11 04:56N 45°34' W 122°44'0 0.0
2017-Dec-11 04:28N 45°34' W 122°44'0 0.0
2017-Dec-11 03:58N 45°34' W 122°44'0 0.0
2017-Dec-11 03:25N 45°34' W 122°44'0 0.0
2017-Dec-11 02:58N 45°34' W 122°44'0 0.0
2017-Dec-11 02:28N 45°34' W 122°44'0 0.0
2017-Dec-11 01:58N 45°34' W 122°44'0 0.0
2017-Dec-11 01:28N 45°34' W 122°44'0 0.0
2017-Dec-11 00:46N 45°34' W 122°44'0 0.0
2017-Dec-11 00:28N 45°34' W 122°44'0 0.0
2017-Dec-10 23:58N 45°34' W 122°44'0 0.0
2017-Dec-10 23:28N 45°34' W 122°44'0 0.0
2017-Dec-10 22:55N 45°34' W 122°44'0 0.0
2017-Dec-10 22:28N 45°34' W 122°44'0 0.0
2017-Dec-10 21:58N 45°34' W 122°44'0 0.0
2017-Dec-10 21:28N 45°34' W 122°44'0 0.0
2017-Dec-10 20:58N 45°34' W 122°44'0 0.0
2017-Dec-10 20:28N 45°34' W 122°44'0 0.0
2017-Dec-10 19:58N 45°34' W 122°44'0 0.0
2017-Dec-10 19:16N 45°34' W 122°44'0 0.0
2017-Dec-10 18:58N 45°34' W 122°44'0 0.0
2017-Dec-10 18:25N 45°34' W 122°44'0 0.0
2017-Dec-10 17:55N 45°34' W 122°44'0 0.0
2017-Dec-10 17:28N 45°34' W 122°44'0 0.0
2017-Dec-10 16:58N 45°34' W 122°44'0 0.0
2017-Dec-10 16:28N 45°34' W 122°44'0 0.0
2017-Dec-10 15:58N 45°34' W 122°44'0 0.0
2017-Dec-10 15:28N 45°34' W 122°44'0 0.0
2017-Dec-10 14:52N 45°34' W 122°44'0 0.0
2017-Dec-10 14:28N 45°34' W 122°44'0 0.0
2017-Dec-10 13:58N 45°34' W 122°44'0 0.0
2017-Dec-10 13:19N 45°34' W 122°44'0 0.0
2017-Dec-10 12:52N 45°34' W 122°44'0 0.0
2017-Dec-10 12:22N 45°34' W 122°44'0 0.0
2017-Dec-10 11:58N 45°34' W 122°44'0 0.0
2017-Dec-10 11:22N 45°34' W 122°44'0 0.0
2017-Dec-10 10:58N 45°34' W 122°44'0 0.1
2017-Dec-10 10:28N 45°34' W 122°44'0 0.0
2017-Dec-10 09:58N 45°34' W 122°44'1 3.3
2017-Dec-10 09:30N 45°35' W 122°45'4 7.2
2017-Dec-10 09:01N 45°38' W 122°47'3 6.6
2017-Dec-10 08:31N 45°41' W 122°46'3 6.6
2017-Dec-10 08:01N 45°45' W 122°46'3 5.9
2017-Dec-10 07:31N 45°47' W 122°47'2 3.8
2017-Dec-10 06:56N 45°50' W 122°48'2 4.8
2017-Dec-10 06:31N 45°52' W 122°47'3 5.8
2017-Dec-10 06:00N 45°54' W 122°48'3 6.0
2017-Dec-10 05:31N 45°57' W 122°49'3 6.4
2017-Dec-10 05:00N 46°00' W 122°51'3 6.4
2017-Dec-10 04:31N 46°03' W 122°53'3 6.1
2017-Dec-10 04:00N 46°05' W 122°55'0 0.4
2017-Dec-10 03:18N 46°05' W 122°56'0 0.0
2017-Dec-10 03:00N 46°05' W 122°56'0 0.0
2017-Dec-10 02:30N 46°05' W 122°56'0 0.0
2017-Dec-10 02:00N 46°05' W 122°56'0 0.0
2017-Dec-10 01:27N 46°05' W 122°56'0 0.0
2017-Dec-10 01:00N 46°05' W 122°56'0 0.0
2017-Dec-10 00:30N 46°05' W 122°56'0 0.0
2017-Dec-09 23:54N 46°05' W 122°56'0 0.0
2017-Dec-09 23:27N 46°05' W 122°56'0 0.0
2017-Dec-09 23:00N 46°05' W 122°56'0 0.0
2017-Dec-09 22:30N 46°05' W 122°56'0 0.0
2017-Dec-09 21:57N 46°05' W 122°56'0 0.0
2017-Dec-09 21:21N 46°05' W 122°56'0 0.0
2017-Dec-09 21:00N 46°05' W 122°56'0 0.0
2017-Dec-09 20:24N 46°05' W 122°56'0 0.0
2017-Dec-09 19:57N 46°05' W 122°56'0 0.0
2017-Dec-09 19:30N 46°05' W 122°56'0 0.0
2017-Dec-09 18:55N 46°05' W 122°56'0 0.0
2017-Dec-09 18:30N 46°05' W 122°56'0 0.0
2017-Dec-09 17:27N 46°05' W 122°56'0 0.0
2017-Dec-09 17:00N 46°05' W 122°56'0 0.0
2017-Dec-09 16:30N 46°05' W 122°56'0 0.0
2017-Dec-09 15:42N 46°05' W 122°56'0 0.0
2017-Dec-09 15:27N 46°05' W 122°56'0 0.0
2017-Dec-09 14:12N 46°05' W 122°56'0 0.0
2017-Dec-09 13:36N 46°05' W 122°56'0 0.0
2017-Dec-09 13:21N 46°05' W 122°56'0 0.0
2017-Dec-09 13:00N 46°05' W 122°56'0 0.0
2017-Dec-09 12:30N 46°05' W 122°56'0 0.0
2017-Dec-09 12:00N 46°05' W 122°56'0 0.0
2017-Dec-09 11:24N 46°05' W 122°56'0 0.0
2017-Dec-09 10:57N 46°05' W 122°56'0 0.0
2017-Dec-09 10:27N 46°05' W 122°56'0 0.0
2017-Dec-09 10:00N 46°05' W 122°56'0 0.0
2017-Dec-09 09:30N 46°05' W 122°56'0 0.0
2017-Dec-09 09:00N 46°05' W 122°56'0 0.0
2017-Dec-09 08:30N 46°05' W 122°56'1 2.2
2017-Dec-09 08:01N 46°06' W 122°57'0 0.1
2017-Dec-09 07:30N 46°06' W 122°57'0 0.9
2017-Dec-09 07:01N 46°06' W 122°57'0 0.1
2017-Dec-09 06:09N 46°06' W 122°56'0 0.0
2017-Dec-09 06:01N 46°06' W 122°56'0 0.0
2017-Dec-09 05:31N 46°06' W 122°56'1 1.4
2017-Dec-09 05:01N 46°06' W 122°56'0 0.4
2017-Dec-09 04:30N 46°05' W 122°56'0 0.0
2017-Dec-09 04:01N 46°05' W 122°56'0 0.0
2017-Dec-09 03:30N 46°05' W 122°56'0 0.0
2017-Dec-09 03:00N 46°05' W 122°56'0 0.0
2017-Dec-09 02:30N 46°05' W 122°56'0 0.0
2017-Dec-09 02:00N 46°05' W 122°56'0 0.0
2017-Dec-09 01:31N 46°05' W 122°56'0 0.0
2017-Dec-09 01:00N 46°05' W 122°56'0 0.0
2017-Dec-09 00:31N 46°05' W 122°56'0 0.0
2017-Dec-09 00:00N 46°05' W 122°56'0 0.0
2017-Dec-08 23:30N 46°05' W 122°56'0 0.0
2017-Dec-08 23:00N 46°05' W 122°56'0 0.0
2017-Dec-08 22:31N 46°05' W 122°56'0 0.0
2017-Dec-08 22:01N 46°05' W 122°56'0 0.0
2017-Dec-08 21:30N 46°05' W 122°56'0 0.0
2017-Dec-08 21:00N 46°05' W 122°56'0 0.0
2017-Dec-08 20:31N 46°05' W 122°56'0 0.0
2017-Dec-08 20:01N 46°05' W 122°56'0 0.0
2017-Dec-08 19:30N 46°05' W 122°56'0 0.0
2017-Dec-08 19:01N 46°05' W 122°56'0 0.0
2017-Dec-08 18:31N 46°05' W 122°56'0 0.0
2017-Dec-08 18:01N 46°05' W 122°56'0 0.0
2017-Dec-08 17:31N 46°05' W 122°56'0 0.0
2017-Dec-08 17:00N 46°05' W 122°56'0 0.0
2017-Dec-08 16:30N 46°05' W 122°56'0 0.0
2017-Dec-08 16:01N 46°05' W 122°56'0 0.0
2017-Dec-08 15:31N 46°05' W 122°56'0 0.0
2017-Dec-08 15:01N 46°05' W 122°56'0 0.0
2017-Dec-08 14:30N 46°05' W 122°56'0 0.0
2017-Dec-08 14:01N 46°05' W 122°56'0 0.0
2017-Dec-08 13:30N 46°05' W 122°56'0 0.0
2017-Dec-08 13:01N 46°05' W 122°56'0 0.0
2017-Dec-08 12:30N 46°05' W 122°56'0 0.0
2017-Dec-08 12:01N 46°05' W 122°56'0 0.0
2017-Dec-08 11:30N 46°05' W 122°56'0 0.0
2017-Dec-08 11:01N 46°05' W 122°56'0 0.0
2017-Dec-08 10:31N 46°05' W 122°56'0 0.0
2017-Dec-08 10:01N 46°05' W 122°56'0 0.0
2017-Dec-08 09:31N 46°05' W 122°56'0 0.0
2017-Dec-08 08:46N 46°05' W 122°56'0 0.0
2017-Dec-08 08:28N 46°05' W 122°56'0 0.0
2017-Dec-08 08:01N 46°05' W 122°56'0 0.0
2017-Dec-08 07:30N 46°05' W 122°56'0 0.0
2017-Dec-08 07:00N 46°05' W 122°56'0 0.0
2017-Dec-08 06:31N 46°05' W 122°56'0 0.0
2017-Dec-08 06:01N 46°05' W 122°56'0 0.0
2017-Dec-08 05:31N 46°05' W 122°56'0 0.0
2017-Dec-08 05:00N 46°05' W 122°56'0 0.0
2017-Dec-08 04:31N 46°05' W 122°56'0 0.0
2017-Dec-08 04:00N 46°05' W 122°56'0 0.0
2017-Dec-08 03:30N 46°05' W 122°56'0 0.0
2017-Dec-08 03:00N 46°05' W 122°56'0 0.0
2017-Dec-08 02:30N 46°05' W 122°56'0 0.0
2017-Dec-08 02:00N 46°05' W 122°56'0 0.0
2017-Dec-08 01:30N 46°05' W 122°56'0 0.0
2017-Dec-08 01:00N 46°05' W 122°56'0 0.0
2017-Dec-08 00:30N 46°05' W 122°56'0 0.0
2017-Dec-08 00:00N 46°05' W 122°56'0 0.0
2017-Dec-07 23:31N 46°05' W 122°56'0 0.0
2017-Dec-07 23:00N 46°05' W 122°56'0 0.0
2017-Dec-07 22:30N 46°05' W 122°56'0 0.0
2017-Dec-07 22:00N 46°05' W 122°56'0 0.0
2017-Dec-07 21:30N 46°05' W 122°56'0 0.0
2017-Dec-07 21:00N 46°05' W 122°56'0 0.7
2017-Dec-07 20:30N 46°05' W 122°55'0 0.0
2017-Dec-07 20:01N 46°05' W 122°55'0 0.1
2017-Dec-07 19:30N 46°05' W 122°55'0 0.8
2017-Dec-07 19:00N 46°05' W 122°56'0 0.0
2017-Dec-07 18:31N 46°05' W 122°56'0 0.0
2017-Dec-07 18:01N 46°05' W 122°56'0 0.0
2017-Dec-07 17:30N 46°05' W 122°56'0 0.7
2017-Dec-07 17:00N 46°05' W 122°55'3 5.6
2017-Dec-07 16:31N 46°03' W 122°53'2 3.1
2017-Dec-07 16:01N 46°02' W 122°52'0 0.2
2017-Dec-07 15:30N 46°02' W 122°52'0 0.0
2017-Dec-07 15:00N 46°02' W 122°52'0 0.0
2017-Dec-07 14:31N 46°02' W 122°52'0 0.0
2017-Dec-07 14:01N 46°02' W 122°52'0 0.0
2017-Dec-07 13:31N 46°02' W 122°52'0 0.0
2017-Dec-07 13:00N 46°02' W 122°52'0 0.9
2017-Dec-07 12:30N 46°02' W 122°53'3 6.7
2017-Dec-07 12:01N 46°05' W 122°55'2 3.2
2017-Dec-07 11:31N 46°06' W 122°56'1 1.9
2017-Dec-07 11:01N 46°05' W 122°55'0 0.2
2017-Dec-07 10:31N 46°05' W 122°55'0 0.0
2017-Dec-07 10:01N 46°05' W 122°55'0 0.0
2017-Dec-07 09:31N 46°05' W 122°55'0 0.0
2017-Dec-07 09:01N 46°05' W 122°55'0 0.7
2017-Dec-07 08:31N 46°05' W 122°55'0 0.8
2017-Dec-07 08:00N 46°05' W 122°55'1 2.0
2017-Dec-07 07:30N 46°06' W 122°56'0 0.0
2017-Dec-07 07:01N 46°06' W 122°56'0 0.0
2017-Dec-07 06:30N 46°06' W 122°56'1 1.3
2017-Dec-07 06:01N 46°05' W 122°56'0 0.1
2017-Dec-07 05:30N 46°05' W 122°56'0 0.0
2017-Dec-07 05:01N 46°05' W 122°56'0 0.1
2017-Dec-07 04:27N 46°05' W 122°56'1 1.3
2017-Dec-07 04:01N 46°06' W 122°56'0 0.1
2017-Dec-07 03:31N 46°06' W 122°56'0 0.4
2017-Dec-07 02:39N 46°06' W 122°56'1 3.8
2017-Dec-07 02:31N 46°05' W 122°55'0 0.0
2017-Dec-07 02:00N 46°05' W 122°55'0 0.0
2017-Dec-07 01:30N 46°05' W 122°55'0 0.0
2017-Dec-07 01:01N 46°05' W 122°55'4 7.4
2017-Dec-07 00:31N 46°02' W 122°53'2 4.0
2017-Dec-07 00:00N 46°00' W 122°51'5 9.7
2017-Dec-06 23:31N 45°56' W 122°48'510.2
2017-Dec-06 23:00N 45°51' W 122°47'510.1
2017-Dec-06 22:30N 45°46' W 122°46'610.5
2017-Dec-06 21:59N 45°40' W 122°46'2 4.2
2017-Dec-06 21:31N 45°39' W 122°45'1 2.0
2017-Dec-06 21:01N 45°38' W 122°44'  
2017-Dec-04 10:23N 46°05' W 122°56'0 0.0
2017-Dec-04 09:56N 46°05' W 122°56'0 0.0
2017-Dec-04 09:26N 46°05' W 122°56'0 0.0
2017-Dec-04 08:47N 46°05' W 122°56'0 0.0
2017-Dec-04 08:26N 46°05' W 122°56'0 0.0
2017-Dec-04 07:47N 46°05' W 122°56'0 0.0
2017-Dec-04 07:23N 46°05' W 122°56'0 0.0
2017-Dec-04 06:59N 46°05' W 122°56'0 0.0
2017-Dec-04 06:29N 46°05' W 122°56'0 0.0
2017-Dec-04 05:56N 46°05' W 122°56'0 0.0
2017-Dec-04 05:26N 46°05' W 122°56'0 0.0
2017-Dec-04 04:56N 46°05' W 122°56'0 0.0
2017-Dec-04 04:29N 46°05' W 122°56'0 0.0
2017-Dec-04 03:53N 46°05' W 122°56'0 0.0
2017-Dec-04 03:29N 46°05' W 122°56'0 0.0
2017-Dec-04 02:59N 46°05' W 122°56'0 0.0
2017-Dec-04 02:23N 46°05' W 122°56'0 0.0
2017-Dec-04 01:50N 46°05' W 122°56'0 0.0
2017-Dec-04 01:26N 46°05' W 122°56'0 0.0
2017-Dec-04 00:56N 46°05' W 122°56'0 0.0
2017-Dec-04 00:26N 46°05' W 122°56'0 0.0
2017-Dec-03 23:56N 46°05' W 122°56'0 0.0
2017-Dec-03 23:29N 46°05' W 122°56'0 0.0
2017-Dec-03 22:08N 46°05' W 122°56'0 0.0
2017-Dec-03 21:56N 46°05' W 122°56'0 0.0
2017-Dec-03 21:29N 46°05' W 122°56'0 0.0
2017-Dec-03 20:59N 46°05' W 122°56'0 0.0
2017-Dec-03 20:17N 46°05' W 122°56'0 0.0
2017-Dec-03 19:59N 46°05' W 122°56'0 0.0
2017-Dec-03 19:23N 46°05' W 122°56'0 0.0
2017-Dec-03 18:59N 46°05' W 122°56'0 0.0
2017-Dec-03 18:29N 46°05' W 122°56'0 0.0
2017-Dec-03 17:59N 46°05' W 122°56'0 0.0
2017-Dec-03 17:26N 46°05' W 122°56'0 0.0
2017-Dec-03 16:59N 46°05' W 122°56'0 0.0
2017-Dec-03 16:29N 46°05' W 122°56'0 0.0
2017-Dec-03 15:56N 46°05' W 122°56'0 0.0
2017-Dec-03 15:23N 46°05' W 122°56'0 0.0
2017-Dec-03 14:59N 46°05' W 122°56'0 0.0
2017-Dec-03 14:29N 46°05' W 122°56'0 0.0
2017-Dec-03 13:56N 46°05' W 122°56'0 0.0
2017-Dec-03 13:29N 46°05' W 122°56'0 0.0
2017-Dec-03 12:56N 46°05' W 122°56'0 0.0
2017-Dec-03 12:29N 46°05' W 122°56'0 0.0
2017-Dec-03 11:59N 46°05' W 122°56'0 0.0
2017-Dec-03 11:29N 46°05' W 122°56'0 0.0
2017-Dec-03 10:59N 46°05' W 122°56'0 0.0
2017-Dec-03 10:26N 46°05' W 122°56'0 0.0
2017-Dec-03 09:59N 46°05' W 122°56'0 0.0
2017-Dec-03 09:29N 46°05' W 122°56'0 0.0
2017-Dec-03 08:59N 46°05' W 122°56'0 0.0
2017-Dec-03 08:26N 46°05' W 122°56'0 0.0
2017-Dec-03 07:59N 46°05' W 122°56'0 0.0
2017-Dec-03 07:29N 46°05' W 122°56'0 0.0
2017-Dec-03 06:59N 46°05' W 122°56'0 0.0
2017-Dec-03 06:26N 46°05' W 122°56'0 0.0
2017-Dec-03 05:56N 46°05' W 122°56'0 0.0
2017-Dec-03 05:29N 46°05' W 122°56'0 0.0
2017-Dec-03 04:59N 46°05' W 122°56'0 0.0
2017-Dec-03 04:26N 46°05' W 122°56'0 0.0
2017-Dec-03 03:53N 46°05' W 122°56'0 0.0
2017-Dec-03 03:28N 46°05' W 122°56'0 0.0
2017-Dec-03 02:56N 46°05' W 122°56'0 0.0
2017-Dec-03 02:20N 46°05' W 122°56'0 0.0
2017-Dec-03 01:56N 46°05' W 122°56'0 0.0
2017-Dec-03 01:26N 46°05' W 122°56'0 0.0
2017-Dec-03 00:58N 46°05' W 122°56'0 0.0
2017-Dec-03 00:26N 46°05' W 122°56'0 0.0
2017-Dec-02 23:58N 46°05' W 122°56'0 0.0
2017-Dec-02 23:23N 46°05' W 122°56'0 0.0
2017-Dec-02 22:59N 46°05' W 122°56'0 0.0
2017-Dec-02 22:26N 46°05' W 122°56'0 0.0
2017-Dec-02 21:59N 46°05' W 122°56'0 0.0
2017-Dec-02 21:19N 46°05' W 122°56'0 0.0
2017-Dec-02 20:55N 46°05' W 122°56'0 0.0
2017-Dec-02 20:29N 46°05' W 122°56'0 0.0
2017-Dec-02 19:47N 46°05' W 122°56'0 0.0
2017-Dec-02 19:14N 46°05' W 122°56'0 0.0
2017-Dec-02 18:56N 46°05' W 122°56'0 0.0
2017-Dec-02 18:26N 46°05' W 122°56'0 0.0
2017-Dec-02 17:59N 46°05' W 122°56'0 0.0
2017-Dec-02 17:25N 46°05' W 122°56'0 0.0
2017-Dec-02 16:59N 46°05' W 122°56'0 0.0
2017-Dec-02 16:28N 46°05' W 122°56'0 0.0
2017-Dec-02 15:58N 46°05' W 122°56'0 0.0
2017-Dec-02 15:28N 46°05' W 122°56'0 0.0
2017-Dec-02 14:52N 46°05' W 122°56'0 0.0
2017-Dec-02 14:28N 46°05' W 122°56'0 0.0
2017-Dec-02 13:59N 46°05' W 122°56'0 0.0
2017-Dec-02 13:28N 46°05' W 122°56'0 0.0
2017-Dec-02 12:59N 46°05' W 122°56'0 0.0
2017-Dec-02 12:28N 46°05' W 122°56'0 0.0
2017-Dec-02 11:53N 46°05' W 122°56'0 0.0
2017-Dec-02 11:25N 46°05' W 122°56'0 0.0
2017-Dec-02 10:56N 46°05' W 122°56'0 0.0
2017-Dec-02 10:29N 46°05' W 122°56'0 0.0
2017-Dec-02 09:53N 46°05' W 122°56'0 0.0
2017-Dec-02 09:29N 46°05' W 122°56'0 0.0
2017-Dec-02 08:58N 46°05' W 122°56'0 0.0
2017-Dec-02 08:13N 46°05' W 122°56'0 0.0
2017-Dec-02 07:58N 46°05' W 122°56'0 0.0
2017-Dec-02 07:28N 46°05' W 122°56'0 0.0
2017-Dec-02 06:52N 46°05' W 122°56'0 0.0
2017-Dec-02 06:28N 46°05' W 122°56'0 0.0
2017-Dec-02 05:58N 46°05' W 122°56'0 0.0
2017-Dec-02 05:25N 46°05' W 122°56'0 0.0
2017-Dec-02 04:55N 46°05' W 122°56'0 0.0
2017-Dec-02 04:25N 46°05' W 122°56'0 0.0
2017-Dec-02 03:55N 46°05' W 122°56'0 0.0
2017-Dec-02 03:19N 46°05' W 122°56'0 0.0
2017-Dec-02 02:58N 46°05' W 122°56'0 0.0
2017-Dec-02 02:25N 46°05' W 122°56'0 0.0
2017-Dec-02 01:55N 46°05' W 122°56'0 0.0
2017-Dec-02 01:23N 46°05' W 122°56'0 0.0
2017-Dec-02 00:55N 46°05' W 122°56'0 0.0
2017-Dec-02 00:28N 46°05' W 122°56'0 0.0
2017-Dec-01 23:58N 46°05' W 122°56'0 0.0
2017-Dec-01 23:10N 46°05' W 122°56'0 0.0
2017-Dec-01 22:58N 46°05' W 122°56'0 0.0
2017-Dec-01 22:28N 46°05' W 122°56'0 0.0
2017-Dec-01 21:58N 46°05' W 122°56'0 0.0
2017-Dec-01 21:26N 46°05' W 122°56'0 0.0
2017-Dec-01 20:52N 46°05' W 122°56'0 0.0
2017-Dec-01 20:28N 46°05' W 122°56'0 0.0
2017-Dec-01 19:58N 46°05' W 122°56'0 0.0
2017-Dec-01 19:28N 46°05' W 122°56'0 0.0
2017-Dec-01 18:52N 46°05' W 122°56'0 0.0
2017-Dec-01 18:25N 46°05' W 122°56'0 0.0
2017-Dec-01 17:58N 46°05' W 122°56'0 0.0
2017-Dec-01 17:29N 46°05' W 122°56'  
Track history (hours):
 
Tides and Currents Weather Stations Pressure Air Temp Water Temp Dewpoint Dewpoint Depression Visibility Wind Speed Wind Dir Waves Ship Positions

Umatilla

Owner: Shaver TRansportation Company, Portland, OR. More information available from US FCC via Universal Licensing System and Coast Guard Vessel Documentation Center.

Last reported at 2017-Dec-11 16:57 UTC. Time now 2017-Dec-12 15:41 UTC.
Position N 45°37' W 122°42'.

Length 20 m; draft 2.9 m.

Type: Tug. MMSI: 367513210.

Date/timePositionNaut miles runAvg speedWind from/ knotsBaromVisibWave heightAir tempDewpointWater temp
2017-Dec-11 16:57N 45°37' W 122°42'0 0.1
2017-Dec-11 16:19N 45°37' W 122°42'2 5.6
2017-Dec-11 16:00N 45°38' W 122°44'1 1.5
2017-Dec-11 15:26N 45°39' W 122°45'0 0.0
2017-Dec-11 14:59N 45°39' W 122°45'1 1.1
2017-Dec-11 14:30N 45°39' W 122°46'1 2.2
2017-Dec-11 14:00N 45°38' W 122°47'1 2.3
2017-Dec-11 13:30N 45°39' W 122°46'1 1.1
2017-Dec-11 13:00N 45°39' W 122°45'1 1.6
2017-Dec-11 12:31N 45°39' W 122°46'4 7.2
2017-Dec-11 12:00N 45°36' W 122°46'3 5.2
2017-Dec-11 11:30N 45°34' W 122°44'0 0.1
2017-Dec-11 10:55N 45°34' W 122°44'0 0.0
2017-Dec-11 10:28N 45°34' W 122°44'0 0.0
2017-Dec-11 09:52N 45°34' W 122°44'0 0.0
2017-Dec-11 09:25N 45°34' W 122°44'0 0.0
2017-Dec-11 08:58N 45°34' W 122°44'0 0.0
2017-Dec-11 08:10N 45°34' W 122°44'0 0.0
2017-Dec-11 07:55N 45°34' W 122°44'0 0.0
2017-Dec-11 07:29N 45°34' W 122°44'0 0.0
2017-Dec-11 06:59N 45°34' W 122°44'0 0.0
2017-Dec-11 06:29N 45°34' W 122°44'0 0.0
2017-Dec-11 05:56N 45°34' W 122°44'0 0.0
2017-Dec-11 05:26N 45°34' W 122°44'0 0.0
2017-Dec-11 04:56N 45°34' W 122°44'0 0.0
2017-Dec-11 04:28N 45°34' W 122°44'0 0.0
2017-Dec-11 03:58N 45°34' W 122°44'0 0.0
2017-Dec-11 03:25N 45°34' W 122°44'0 0.0
2017-Dec-11 02:58N 45°34' W 122°44'0 0.0
2017-Dec-11 02:28N 45°34' W 122°44'0 0.0
2017-Dec-11 01:58N 45°34' W 122°44'0 0.0
2017-Dec-11 01:28N 45°34' W 122°44'0 0.0
2017-Dec-11 00:46N 45°34' W 122°44'0 0.0
2017-Dec-11 00:28N 45°34' W 122°44'0 0.0
2017-Dec-10 23:58N 45°34' W 122°44'0 0.0
2017-Dec-10 23:28N 45°34' W 122°44'0 0.0
2017-Dec-10 22:55N 45°34' W 122°44'0 0.0
2017-Dec-10 22:28N 45°34' W 122°44'0 0.0
2017-Dec-10 21:58N 45°34' W 122°44'0 0.0
2017-Dec-10 21:28N 45°34' W 122°44'0 0.0
2017-Dec-10 20:58N 45°34' W 122°44'0 0.0
2017-Dec-10 20:28N 45°34' W 122°44'0 0.0
2017-Dec-10 19:58N 45°34' W 122°44'0 0.0
2017-Dec-10 19:16N 45°34' W 122°44'0 0.0
2017-Dec-10 18:58N 45°34' W 122°44'0 0.0
2017-Dec-10 18:25N 45°34' W 122°44'0 0.0
2017-Dec-10 17:55N 45°34' W 122°44'0 0.0
2017-Dec-10 17:28N 45°34' W 122°44'0 0.0
2017-Dec-10 16:58N 45°34' W 122°44'0 0.0
2017-Dec-10 16:28N 45°34' W 122°44'0 0.0
2017-Dec-10 15:58N 45°34' W 122°44'0 0.0
2017-Dec-10 15:28N 45°34' W 122°44'0 0.0
2017-Dec-10 14:52N 45°34' W 122°44'0 0.0
2017-Dec-10 14:28N 45°34' W 122°44'0 0.0
2017-Dec-10 13:58N 45°34' W 122°44'0 0.0
2017-Dec-10 13:19N 45°34' W 122°44'0 0.0
2017-Dec-10 12:52N 45°34' W 122°44'0 0.0
2017-Dec-10 12:22N 45°34' W 122°44'0 0.0
2017-Dec-10 11:58N 45°34' W 122°44'0 0.0
2017-Dec-10 11:22N 45°34' W 122°44'0 0.0
2017-Dec-10 10:58N 45°34' W 122°44'0 0.1
2017-Dec-10 10:28N 45°34' W 122°44'0 0.0
2017-Dec-10 09:58N 45°34' W 122°44'1 3.3
2017-Dec-10 09:30N 45°35' W 122°45'4 7.2
2017-Dec-10 09:01N 45°38' W 122°47'3 6.6
2017-Dec-10 08:31N 45°41' W 122°46'3 6.6
2017-Dec-10 08:01N 45°45' W 122°46'3 5.9
2017-Dec-10 07:31N 45°47' W 122°47'2 3.8
2017-Dec-10 06:56N 45°50' W 122°48'2 4.8
2017-Dec-10 06:31N 45°52' W 122°47'3 5.8
2017-Dec-10 06:00N 45°54' W 122°48'3 6.0
2017-Dec-10 05:31N 45°57' W 122°49'3 6.4
2017-Dec-10 05:00N 46°00' W 122°51'3 6.4
2017-Dec-10 04:31N 46°03' W 122°53'3 6.1
2017-Dec-10 04:00N 46°05' W 122°55'0 0.4
2017-Dec-10 03:18N 46°05' W 122°56'0 0.0
2017-Dec-10 03:00N 46°05' W 122°56'0 0.0
2017-Dec-10 02:30N 46°05' W 122°56'0 0.0
2017-Dec-10 02:00N 46°05' W 122°56'0 0.0
2017-Dec-10 01:27N 46°05' W 122°56'0 0.0
2017-Dec-10 01:00N 46°05' W 122°56'0 0.0
2017-Dec-10 00:30N 46°05' W 122°56'0 0.0
2017-Dec-09 23:54N 46°05' W 122°56'0 0.0
2017-Dec-09 23:27N 46°05' W 122°56'0 0.0
2017-Dec-09 23:00N 46°05' W 122°56'0 0.0
2017-Dec-09 22:30N 46°05' W 122°56'0 0.0
2017-Dec-09 21:57N 46°05' W 122°56'0 0.0
2017-Dec-09 21:21N 46°05' W 122°56'0 0.0
2017-Dec-09 21:00N 46°05' W 122°56'0 0.0
2017-Dec-09 20:24N 46°05' W 122°56'0 0.0
2017-Dec-09 19:57N 46°05' W 122°56'0 0.0
2017-Dec-09 19:30N 46°05' W 122°56'0 0.0
2017-Dec-09 18:55N 46°05' W 122°56'0 0.0
2017-Dec-09 18:30N 46°05' W 122°56'0 0.0
2017-Dec-09 17:27N 46°05' W 122°56'0 0.0
2017-Dec-09 17:00N 46°05' W 122°56'0 0.0
2017-Dec-09 16:30N 46°05' W 122°56'0 0.0
2017-Dec-09 15:42N 46°05' W 122°56'0 0.0
2017-Dec-09 15:27N 46°05' W 122°56'0 0.0
2017-Dec-09 14:12N 46°05' W 122°56'0 0.0
2017-Dec-09 13:36N 46°05' W 122°56'0 0.0
2017-Dec-09 13:21N 46°05' W 122°56'0 0.0
2017-Dec-09 13:00N 46°05' W 122°56'0 0.0
2017-Dec-09 12:30N 46°05' W 122°56'0 0.0
2017-Dec-09 12:00N 46°05' W 122°56'0 0.0
2017-Dec-09 11:24N 46°05' W 122°56'0 0.0
2017-Dec-09 10:57N 46°05' W 122°56'0 0.0
2017-Dec-09 10:27N 46°05' W 122°56'0 0.0
2017-Dec-09 10:00N 46°05' W 122°56'0 0.0
2017-Dec-09 09:30N 46°05' W 122°56'0 0.0
2017-Dec-09 09:00N 46°05' W 122°56'0 0.0
2017-Dec-09 08:30N 46°05' W 122°56'1 2.2
2017-Dec-09 08:01N 46°06' W 122°57'0 0.1
2017-Dec-09 07:30N 46°06' W 122°57'0 0.9
2017-Dec-09 07:01N 46°06' W 122°57'0 0.1
2017-Dec-09 06:09N 46°06' W 122°56'0 0.0
2017-Dec-09 06:01N 46°06' W 122°56'0 0.0
2017-Dec-09 05:31N 46°06' W 122°56'1 1.4
2017-Dec-09 05:01N 46°06' W 122°56'0 0.4
2017-Dec-09 04:30N 46°05' W 122°56'0 0.0
2017-Dec-09 04:01N 46°05' W 122°56'0 0.0
2017-Dec-09 03:30N 46°05' W 122°56'0 0.0
2017-Dec-09 03:00N 46°05' W 122°56'0 0.0
2017-Dec-09 02:30N 46°05' W 122°56'0 0.0
2017-Dec-09 02:00N 46°05' W 122°56'0 0.0
2017-Dec-09 01:31N 46°05' W 122°56'0 0.0
2017-Dec-09 01:00N 46°05' W 122°56'0 0.0
2017-Dec-09 00:31N 46°05' W 122°56'0 0.0
2017-Dec-09 00:00N 46°05' W 122°56'0 0.0
2017-Dec-08 23:30N 46°05' W 122°56'0 0.0
2017-Dec-08 23:00N 46°05' W 122°56'0 0.0
2017-Dec-08 22:31N 46°05' W 122°56'0 0.0
2017-Dec-08 22:01N 46°05' W 122°56'0 0.0
2017-Dec-08 21:30N 46°05' W 122°56'0 0.0
2017-Dec-08 21:00N 46°05' W 122°56'0 0.0
2017-Dec-08 20:31N 46°05' W 122°56'0 0.0
2017-Dec-08 20:01N 46°05' W 122°56'0 0.0
2017-Dec-08 19:30N 46°05' W 122°56'0 0.0
2017-Dec-08 19:01N 46°05' W 122°56'0 0.0
2017-Dec-08 18:31N 46°05' W 122°56'0 0.0
2017-Dec-08 18:01N 46°05' W 122°56'0 0.0
2017-Dec-08 17:31N 46°05' W 122°56'0 0.0
2017-Dec-08 17:00N 46°05' W 122°56'0 0.0
2017-Dec-08 16:30N 46°05' W 122°56'0 0.0
2017-Dec-08 16:01N 46°05' W 122°56'0 0.0
2017-Dec-08 15:31N 46°05' W 122°56'0 0.0
2017-Dec-08 15:01N 46°05' W 122°56'0 0.0
2017-Dec-08 14:30N 46°05' W 122°56'0 0.0
2017-Dec-08 14:01N 46°05' W 122°56'0 0.0
2017-Dec-08 13:30N 46°05' W 122°56'0 0.0
2017-Dec-08 13:01N 46°05' W 122°56'0 0.0
2017-Dec-08 12:30N 46°05' W 122°56'0 0.0
2017-Dec-08 12:01N 46°05' W 122°56'0 0.0
2017-Dec-08 11:30N 46°05' W 122°56'0 0.0
2017-Dec-08 11:01N 46°05' W 122°56'0 0.0
2017-Dec-08 10:31N 46°05' W 122°56'0 0.0
2017-Dec-08 10:01N 46°05' W 122°56'0 0.0
2017-Dec-08 09:31N 46°05' W 122°56'0 0.0
2017-Dec-08 08:46N 46°05' W 122°56'0 0.0
2017-Dec-08 08:28N 46°05' W 122°56'0 0.0
2017-Dec-08 08:01N 46°05' W 122°56'0 0.0
2017-Dec-08 07:30N 46°05' W 122°56'0 0.0
2017-Dec-08 07:00N 46°05' W 122°56'0 0.0
2017-Dec-08 06:31N 46°05' W 122°56'0 0.0
2017-Dec-08 06:01N 46°05' W 122°56'0 0.0
2017-Dec-08 05:31N 46°05' W 122°56'0 0.0
2017-Dec-08 05:00N 46°05' W 122°56'0 0.0
2017-Dec-08 04:31N 46°05' W 122°56'0 0.0
2017-Dec-08 04:00N 46°05' W 122°56'0 0.0
2017-Dec-08 03:30N 46°05' W 122°56'0 0.0
2017-Dec-08 03:00N 46°05' W 122°56'0 0.0
2017-Dec-08 02:30N 46°05' W 122°56'0 0.0
2017-Dec-08 02:00N 46°05' W 122°56'0 0.0
2017-Dec-08 01:30N 46°05' W 122°56'0 0.0
2017-Dec-08 01:00N 46°05' W 122°56'0 0.0
2017-Dec-08 00:30N 46°05' W 122°56'0 0.0
2017-Dec-08 00:00N 46°05' W 122°56'0 0.0
2017-Dec-07 23:31N 46°05' W 122°56'0 0.0
2017-Dec-07 23:00N 46°05' W 122°56'0 0.0
2017-Dec-07 22:30N 46°05' W 122°56'0 0.0
2017-Dec-07 22:00N 46°05' W 122°56'0 0.0
2017-Dec-07 21:30N 46°05' W 122°56'0 0.0
2017-Dec-07 21:00N 46°05' W 122°56'0 0.7
2017-Dec-07 20:30N 46°05' W 122°55'0 0.0
2017-Dec-07 20:01N 46°05' W 122°55'0 0.1
2017-Dec-07 19:30N 46°05' W 122°55'0 0.8
2017-Dec-07 19:00N 46°05' W 122°56'0 0.0
2017-Dec-07 18:31N 46°05' W 122°56'0 0.0
2017-Dec-07 18:01N 46°05' W 122°56'0 0.0
2017-Dec-07 17:30N 46°05' W 122°56'0 0.7
2017-Dec-07 17:00N 46°05' W 122°55'3 5.6
2017-Dec-07 16:31N 46°03' W 122°53'2 3.1
2017-Dec-07 16:01N 46°02' W 122°52'0 0.2
2017-Dec-07 15:30N 46°02' W 122°52'0 0.0
2017-Dec-07 15:00N 46°02' W 122°52'0 0.0
2017-Dec-07 14:31N 46°02' W 122°52'0 0.0
2017-Dec-07 14:01N 46°02' W 122°52'0 0.0
2017-Dec-07 13:31N 46°02' W 122°52'0 0.0
2017-Dec-07 13:00N 46°02' W 122°52'0 0.9
2017-Dec-07 12:30N 46°02' W 122°53'3 6.7
2017-Dec-07 12:01N 46°05' W 122°55'2 3.2
2017-Dec-07 11:31N 46°06' W 122°56'1 1.9
2017-Dec-07 11:01N 46°05' W 122°55'0 0.2
2017-Dec-07 10:31N 46°05' W 122°55'0 0.0
2017-Dec-07 10:01N 46°05' W 122°55'0 0.0
2017-Dec-07 09:31N 46°05' W 122°55'0 0.0
2017-Dec-07 09:01N 46°05' W 122°55'0 0.7
2017-Dec-07 08:31N 46°05' W 122°55'0 0.8
2017-Dec-07 08:00N 46°05' W 122°55'1 2.0
2017-Dec-07 07:30N 46°06' W 122°56'0 0.0
2017-Dec-07 07:01N 46°06' W 122°56'0 0.0
2017-Dec-07 06:30N 46°06' W 122°56'1 1.3
2017-Dec-07 06:01N 46°05' W 122°56'0 0.1
2017-Dec-07 05:30N 46°05' W 122°56'0 0.0
2017-Dec-07 05:01N 46°05' W 122°56'0 0.1
2017-Dec-07 04:27N 46°05' W 122°56'1 1.3
2017-Dec-07 04:01N 46°06' W 122°56'0 0.1
2017-Dec-07 03:31N 46°06' W 122°56'0 0.4
2017-Dec-07 02:39N 46°06' W 122°56'1 3.8
2017-Dec-07 02:31N 46°05' W 122°55'0 0.0
2017-Dec-07 02:00N 46°05' W 122°55'0 0.0
2017-Dec-07 01:30N 46°05' W 122°55'0 0.0
2017-Dec-07 01:01N 46°05' W 122°55'4 7.4
2017-Dec-07 00:31N 46°02' W 122°53'2 4.0
2017-Dec-07 00:00N 46°00' W 122°51'5 9.7
2017-Dec-06 23:31N 45°56' W 122°48'510.2
2017-Dec-06 23:00N 45°51' W 122°47'510.1
2017-Dec-06 22:30N 45°46' W 122°46'610.5
2017-Dec-06 21:59N 45°40' W 122°46'2 4.2
2017-Dec-06 21:31N 45°39' W 122°45'1 2.0
2017-Dec-06 21:01N 45°38' W 122°44'  
2017-Dec-04 10:23N 46°05' W 122°56'0 0.0
2017-Dec-04 09:56N 46°05' W 122°56'0 0.0
2017-Dec-04 09:26N 46°05' W 122°56'0 0.0
2017-Dec-04 08:47N 46°05' W 122°56'0 0.0
2017-Dec-04 08:26N 46°05' W 122°56'0 0.0
2017-Dec-04 07:47N 46°05' W 122°56'0 0.0
2017-Dec-04 07:23N 46°05' W 122°56'0 0.0
2017-Dec-04 06:59N 46°05' W 122°56'0 0.0
2017-Dec-04 06:29N 46°05' W 122°56'0 0.0
2017-Dec-04 05:56N 46°05' W 122°56'0 0.0
2017-Dec-04 05:26N 46°05' W 122°56'0 0.0
2017-Dec-04 04:56N 46°05' W 122°56'0 0.0
2017-Dec-04 04:29N 46°05' W 122°56'0 0.0
2017-Dec-04 03:53N 46°05' W 122°56'0 0.0
2017-Dec-04 03:29N 46°05' W 122°56'0 0.0
2017-Dec-04 02:59N 46°05' W 122°56'0 0.0
2017-Dec-04 02:23N 46°05' W 122°56'0 0.0
2017-Dec-04 01:50N 46°05' W 122°56'0 0.0
2017-Dec-04 01:26N 46°05' W 122°56'0 0.0
2017-Dec-04 00:56N 46°05' W 122°56'0 0.0
2017-Dec-04 00:26N 46°05' W 122°56'0 0.0
2017-Dec-03 23:56N 46°05' W 122°56'0 0.0
2017-Dec-03 23:29N 46°05' W 122°56'0 0.0
2017-Dec-03 22:08N 46°05' W 122°56'0 0.0
2017-Dec-03 21:56N 46°05' W 122°56'0 0.0
2017-Dec-03 21:29N 46°05' W 122°56'0 0.0
2017-Dec-03 20:59N 46°05' W 122°56'0 0.0
2017-Dec-03 20:17N 46°05' W 122°56'0 0.0
2017-Dec-03 19:59N 46°05' W 122°56'0 0.0
2017-Dec-03 19:23N 46°05' W 122°56'0 0.0
2017-Dec-03 18:59N 46°05' W 122°56'0 0.0
2017-Dec-03 18:29N 46°05' W 122°56'0 0.0
2017-Dec-03 17:59N 46°05' W 122°56'0 0.0
2017-Dec-03 17:26N 46°05' W 122°56'0 0.0
2017-Dec-03 16:59N 46°05' W 122°56'0 0.0
2017-Dec-03 16:29N 46°05' W 122°56'0 0.0
2017-Dec-03 15:56N 46°05' W 122°56'0 0.0
2017-Dec-03 15:23N 46°05' W 122°56'0 0.0
2017-Dec-03 14:59N 46°05' W 122°56'0 0.0
2017-Dec-03 14:29N 46°05' W 122°56'0 0.0
2017-Dec-03 13:56N 46°05' W 122°56'0 0.0
2017-Dec-03 13:29N 46°05' W 122°56'0 0.0
2017-Dec-03 12:56N 46°05' W 122°56'0 0.0
2017-Dec-03 12:29N 46°05' W 122°56'0 0.0
2017-Dec-03 11:59N 46°05' W 122°56'0 0.0
2017-Dec-03 11:29N 46°05' W 122°56'0 0.0
2017-Dec-03 10:59N 46°05' W 122°56'0 0.0
2017-Dec-03 10:26N 46°05' W 122°56'0 0.0
2017-Dec-03 09:59N 46°05' W 122°56'0 0.0
2017-Dec-03 09:29N 46°05' W 122°56'0 0.0
2017-Dec-03 08:59N 46°05' W 122°56'0 0.0
2017-Dec-03 08:26N 46°05' W 122°56'0 0.0
2017-Dec-03 07:59N 46°05' W 122°56'0 0.0
2017-Dec-03 07:29N 46°05' W 122°56'0 0.0
2017-Dec-03 06:59N 46°05' W 122°56'0 0.0
2017-Dec-03 06:26N 46°05' W 122°56'0 0.0
2017-Dec-03 05:56N 46°05' W 122°56'0 0.0
2017-Dec-03 05:29N 46°05' W 122°56'0 0.0
2017-Dec-03 04:59N 46°05' W 122°56'0 0.0
2017-Dec-03 04:26N 46°05' W 122°56'0 0.0
2017-Dec-03 03:53N 46°05' W 122°56'0 0.0
2017-Dec-03 03:28N 46°05' W 122°56'0 0.0
2017-Dec-03 02:56N 46°05' W 122°56'0 0.0
2017-Dec-03 02:20N 46°05' W 122°56'0 0.0
2017-Dec-03 01:56N 46°05' W 122°56'0 0.0
2017-Dec-03 01:26N 46°05' W 122°56'0 0.0
2017-Dec-03 00:58N 46°05' W 122°56'0 0.0
2017-Dec-03 00:26N 46°05' W 122°56'0 0.0
2017-Dec-02 23:58N 46°05' W 122°56'0 0.0
2017-Dec-02 23:23N 46°05' W 122°56'0 0.0
2017-Dec-02 22:59N 46°05' W 122°56'0 0.0
2017-Dec-02 22:26N 46°05' W 122°56'0 0.0
2017-Dec-02 21:59N 46°05' W 122°56'0 0.0
2017-Dec-02 21:19N 46°05' W 122°56'0 0.0
2017-Dec-02 20:55N 46°05' W 122°56'0 0.0
2017-Dec-02 20:29N 46°05' W 122°56'0 0.0
2017-Dec-02 19:47N 46°05' W 122°56'0 0.0
2017-Dec-02 19:14N 46°05' W 122°56'0 0.0
2017-Dec-02 18:56N 46°05' W 122°56'0 0.0
2017-Dec-02 18:26N 46°05' W 122°56'0 0.0
2017-Dec-02 17:59N 46°05' W 122°56'0 0.0
2017-Dec-02 17:25N 46°05' W 122°56'0 0.0
2017-Dec-02 16:59N 46°05' W 122°56'0 0.0
2017-Dec-02 16:28N 46°05' W 122°56'0 0.0
2017-Dec-02 15:58N 46°05' W 122°56'0 0.0
2017-Dec-02 15:28N 46°05' W 122°56'0 0.0
2017-Dec-02 14:52N 46°05' W 122°56'0 0.0
2017-Dec-02 14:28N 46°05' W 122°56'0 0.0
2017-Dec-02 13:59N 46°05' W 122°56'0 0.0
2017-Dec-02 13:28N 46°05' W 122°56'0 0.0
2017-Dec-02 12:59N 46°05' W 122°56'0 0.0
2017-Dec-02 12:28N 46°05' W 122°56'0 0.0
2017-Dec-02 11:53N 46°05' W 122°56'0 0.0
2017-Dec-02 11:25N 46°05' W 122°56'0 0.0
2017-Dec-02 10:56N 46°05' W 122°56'0 0.0
2017-Dec-02 10:29N 46°05' W 122°56'0 0.0
2017-Dec-02 09:53N 46°05' W 122°56'0 0.0
2017-Dec-02 09:29N 46°05' W 122°56'0 0.0
2017-Dec-02 08:58N 46°05' W 122°56'0 0.0
2017-Dec-02 08:13N 46°05' W 122°56'0 0.0
2017-Dec-02 07:58N 46°05' W 122°56'0 0.0
2017-Dec-02 07:28N 46°05' W 122°56'0 0.0
2017-Dec-02 06:52N 46°05' W 122°56'0 0.0
2017-Dec-02 06:28N 46°05' W 122°56'0 0.0
2017-Dec-02 05:58N 46°05' W 122°56'0 0.0
2017-Dec-02 05:25N 46°05' W 122°56'0 0.0
2017-Dec-02 04:55N 46°05' W 122°56'0 0.0
2017-Dec-02 04:25N 46°05' W 122°56'0 0.0
2017-Dec-02 03:55N 46°05' W 122°56'0 0.0
2017-Dec-02 03:19N 46°05' W 122°56'0 0.0
2017-Dec-02 02:58N 46°05' W 122°56'0 0.0
2017-Dec-02 02:25N 46°05' W 122°56'0 0.0
2017-Dec-02 01:55N 46°05' W 122°56'0 0.0
2017-Dec-02 01:23N 46°05' W 122°56'0 0.0
2017-Dec-02 00:55N 46°05' W 122°56'0 0.0
2017-Dec-02 00:28N 46°05' W 122°56'0 0.0
2017-Dec-01 23:58N 46°05' W 122°56'0 0.0
2017-Dec-01 23:10N 46°05' W 122°56'0 0.0
2017-Dec-01 22:58N 46°05' W 122°56'0 0.0
2017-Dec-01 22:28N 46°05' W 122°56'0 0.0
2017-Dec-01 21:58N 46°05' W 122°56'0 0.0
2017-Dec-01 21:26N 46°05' W 122°56'0 0.0
2017-Dec-01 20:52N 46°05' W 122°56'0 0.0
2017-Dec-01 20:28N 46°05' W 122°56'0 0.0
2017-Dec-01 19:58N 46°05' W 122°56'0 0.0
2017-Dec-01 19:28N 46°05' W 122°56'0 0.0
2017-Dec-01 18:52N 46°05' W 122°56'0 0.0
2017-Dec-01 18:25N 46°05' W 122°56'0 0.0
2017-Dec-01 17:58N 46°05' W 122°56'0 0.0
2017-Dec-01 17:29N 46°05' W 122°56'  

Dump ship's entire track history